Time;durP1;ratioP1;P1;durP2;ratioP2;P2;SDS_P1;SDS_P2;PMS_P1;PMS_P2;Temp;Humidity;BMP_temperature;BMP_pressure;BME280_temperature;BME280_humidity;BME280_pressure;Samples;Min_cycle;Max_cycle;Signal;HPM_P1;HPM_P2
2023/01/01 00:00:06;;;;;;;23.05;8.30;;;14.80;99.90;;;;;;5032641;28;20470;-69
2023/01/01 00:02:32;;;;;;;22.90;10.13;;;14.70;99.90;;;;;;5031921;28;20045;-69
2023/01/01 00:04:58;;;;;;;27.70;10.55;;;14.70;99.90;;;;;;5032240;28;20466;-69
2023/01/01 00:07:23;;;;;;;30.20;11.10;;;14.70;99.90;;;;;;5032389;28;20034;-68
2023/01/01 00:12:33;;;;;;;24.27;11.18;;;14.70;99.90;;;;;;5032151;28;20499;-69
2023/01/01 00:14:59;;;;;;;28.05;11.40;;;14.70;99.90;;;;;;5022121;28;20022;-69
2023/01/01 00:17:24;;;;;;;24.63;10.05;;;14.70;99.90;;;;;;5028931;28;20025;-69
2023/01/01 00:19:50;;;;;;;22.23;9.20;;;14.70;99.90;;;;;;5035152;28;20029;-69
2023/01/01 00:22:16;;;;;;;20.73;8.70;;;14.80;99.90;;;;;;5027484;28;20030;-69
2023/01/01 00:24:41;;;;;;;27.33;9.70;;;14.80;99.90;;;;;;5016085;28;20049;-69
2023/01/01 00:27:07;;;;;;;19.98;7.85;;;14.80;99.90;;;;;;5016374;28;20045;-68
2023/01/01 00:29:32;;;;;;;24.50;7.15;;;14.70;99.90;;;;;;5016086;28;20034;-68
2023/01/01 00:31:58;;;;;;;19.67;6.95;;;14.80;99.90;;;;;;5024503;28;20087;-70
2023/01/01 00:34:23;;;;;;;16.75;6.78;;;14.80;99.90;;;;;;5036408;28;20044;-69
2023/01/01 00:36:49;;;;;;;18.92;7.35;;;14.80;99.90;;;;;;5036061;28;20044;-69
2023/01/01 00:39:15;;;;;;;17.48;6.15;;;14.80;99.90;;;;;;5035942;28;20091;-69
2023/01/01 00:41:40;;;;;;;16.05;6.22;;;14.80;99.90;;;;;;5035610;28;20471;-67
2023/01/01 00:44:06;;;;;;;20.27;7.15;;;14.90;99.90;;;;;;5035437;28;20037;-68
2023/01/01 00:46:31;;;;;;;22.25;7.35;;;14.90;99.90;;;;;;5035945;28;20057;-68
2023/01/01 00:48:57;;;;;;;23.08;7.80;;;14.90;99.90;;;;;;5035254;28;20046;-68
2023/01/01 00:51:22;;;;;;;20.98;6.80;;;14.90;99.90;;;;;;5034587;28;20463;-68
2023/01/01 00:53:48;;;;;;;20.23;7.50;;;14.80;99.90;;;;;;5035906;28;20029;-69
2023/01/01 00:56:13;;;;;;;15.90;6.20;;;14.70;99.90;;;;;;5035770;28;20083;-69
2023/01/01 00:58:39;;;;;;;19.20;6.32;;;14.70;99.90;;;;;;5035816;28;20030;-69
2023/01/01 01:01:05;;;;;;;20.40;5.80;;;14.60;99.90;;;;;;5035473;28;20026;-68
2023/01/01 01:03:31;;;;;;;14.13;5.55;;;14.60;99.90;;;;;;5035472;28;20108;-69
2023/01/01 01:05:58;;;;;;;20.63;6.53;;;14.50;99.90;;;;;;5035286;28;20117;-68
2023/01/01 01:08:25;;;;;;;19.95;6.05;;;14.40;99.90;;;;;;5035385;28;20033;-69
2023/01/01 01:10:52;;;;;;;13.70;5.90;;;14.30;99.90;;;;;;5035498;28;20159;-69
2023/01/01 01:13:17;;;;;;;30.58;5.97;;;14.30;99.90;;;;;;5025722;28;20037;-68
2023/01/01 01:15:43;;;;;;;20.77;5.65;;;14.20;99.90;;;;;;5015008;28;20026;-69
2023/01/01 01:18:09;;;;;;;18.05;5.10;;;14.20;99.90;;;;;;5033573;28;20037;-68
2023/01/01 01:20:34;;;;;;;16.35;4.10;;;14.20;99.90;;;;;;5034697;28;20025;-69
2023/01/01 01:23:00;;;;;;;18.60;4.30;;;14.20;99.90;;;;;;5035006;28;20033;-69
2023/01/01 01:25:26;;;;;;;21.88;5.03;;;14.20;99.90;;;;;;5035109;28;20042;-69
2023/01/01 01:27:51;;;;;;;13.45;3.50;;;14.20;99.90;;;;;;5034684;28;20034;-69
2023/01/01 01:30:17;;;;;;;17.70;4.03;;;14.30;99.90;;;;;;5032128;28;20029;-69
2023/01/01 01:32:42;;;;;;;12.68;3.67;;;14.30;99.90;;;;;;5034638;28;20025;-69
2023/01/01 01:35:08;;;;;;;20.60;4.65;;;14.40;99.90;;;;;;5034734;28;20026;-69
2023/01/01 01:37:33;;;;;;;12.80;3.95;;;14.50;99.90;;;;;;5033515;28;20026;-69
2023/01/01 01:39:59;;;;;;;16.92;4.68;;;14.50;99.90;;;;;;5034586;28;20065;-68
2023/01/01 01:42:25;;;;;;;11.15;3.55;;;14.50;99.90;;;;;;5034525;28;20033;-70
2023/01/01 01:44:59;;;;;;;15.23;3.67;;;14.60;99.90;;;;;;5034307;28;20102;-68
2023/01/01 01:47:47;;;;;;;12.60;3.60;;;14.70;99.90;;;;;;5034763;28;20029;-69
2023/01/01 01:50:22;;;;;;;12.68;3.63;;;14.70;99.90;;;;;;5032230;28;20387;-69
2023/01/01 01:53:28;;;;;;;13.77;3.75;;;14.80;99.90;;;;;;5033945;28;20113;-68
2023/01/01 01:55:59;;;;;;;15.13;4.90;;;14.80;99.90;;;;;;5041594;28;20033;-69
2023/01/01 01:58:28;;;;;;;11.82;4.50;;;14.80;99.90;;;;;;5036859;28;20108;-69
2023/01/01 02:00:54;;;;;;;13.75;4.82;;;14.80;99.90;;;;;;5031311;28;20064;-68
2023/01/01 02:03:45;;;;;;;17.85;3.83;;;14.80;99.90;;;;;;5033276;28;20060;-69
2023/01/01 02:06:12;;;;;;;18.77;5.10;;;14.90;99.90;;;;;;5032719;28;20042;-69
2023/01/01 02:08:37;;;;;;;15.98;4.13;;;14.90;99.90;;;;;;5033490;28;20383;-69
2023/01/01 02:11:03;;;;;;;19.48;4.15;;;15.00;99.90;;;;;;5033591;28;20028;-70
2023/01/01 02:13:29;;;;;;;13.85;3.17;;;15.00;99.90;;;;;;5033861;28;20168;-69
2023/01/01 02:16:05;;;;;;;14.50;3.95;;;15.00;99.90;;;;;;5033072;28;20041;-69
2023/01/01 02:18:59;;;;;;;15.55;3.42;;;15.00;99.90;;;;;;5033029;28;20037;-68
2023/01/01 02:21:36;;;;;;;11.40;3.33;;;14.90;99.90;;;;;;5019642;28;20026;-69
2023/01/01 02:24:29;;;;;;;16.00;2.97;;;14.80;99.90;;;;;;5027519;28;20038;-69
2023/01/01 02:27:16;;;;;;;14.13;2.75;;;14.70;99.90;;;;;;5033750;28;20041;-69
2023/01/01 02:30:14;;;;;;;11.60;2.88;;;14.70;99.90;;;;;;5034057;28;20083;-70
2023/01/01 02:33:00;;;;;;;13.52;3.85;;;14.60;99.90;;;;;;5008867;28;20049;-69
2023/01/01 02:35:37;;;;;;;11.30;2.83;;;14.70;99.90;;;;;;5018271;28;20034;-69
2023/01/01 02:38:28;;;;;;;10.48;3.25;;;14.70;99.90;;;;;;5033440;28;20029;-69
2023/01/01 02:41:01;;;;;;;13.13;2.92;;;14.70;99.90;;;;;;5033152;28;20029;-69
2023/01/01 02:43:27;;;;;;;14.43;2.95;;;14.70;99.90;;;;;;5033481;28;20045;-70
2023/01/01 02:45:53;;;;;;;11.10;3.00;;;14.80;99.90;;;;;;5033469;28;20073;-69
2023/01/01 02:48:42;;;;;;;17.27;3.88;;;14.80;99.90;;;;;;5033443;28;20021;-68
2023/01/01 02:51:21;;;;;;;12.52;2.78;;;14.80;99.90;;;;;;5032075;28;20453;-69
2023/01/01 02:53:52;;;;;;;18.70;3.30;;;14.80;99.90;;;;;;5033192;28;20048;-69
2023/01/01 02:56:32;;;;;;;14.52;3.55;;;14.70;99.90;;;;;;5033395;28;20128;-69
2023/01/01 03:02:38;;;;;;;15.02;3.20;;;14.70;99.90;;;;;;5033059;28;20069;-69
2023/01/01 03:05:17;;;;;;;15.15;3.10;;;14.70;99.90;;;;;;5033164;28;20524;-69
2023/01/01 03:07:56;;;;;;;12.43;2.60;;;14.60;99.90;;;;;;5032987;28;20027;-68
2023/01/01 03:10:56;;;;;;;14.85;2.95;;;14.60;99.90;;;;;;5032257;28;20069;-68
2023/01/01 03:13:48;;;;;;;14.27;3.15;;;14.60;99.90;;;;;;5026647;28;20076;-69
2023/01/01 03:16:40;;;;;;;10.13;2.60;;;14.50;99.90;;;;;;5031367;28;20033;-69
2023/01/01 03:19:20;;;;;;;11.18;3.40;;;14.50;99.90;;;;;;5031587;28;20593;-68
2023/01/01 03:22:00;;;;;;;11.68;3.13;;;14.40;99.90;;;;;;5031690;28;20061;-68
2023/01/01 03:24:38;;;;;;;15.38;3.60;;;14.20;99.90;;;;;;5031428;28;20068;-69
2023/01/01 03:27:19;;;;;;;16.55;3.10;;;13.90;99.90;;;;;;5031093;28;20025;-70
2023/01/01 03:29:48;;;;;;;19.45;3.45;;;13.60;99.90;;;;;;5031511;28;20069;-70
2023/01/01 03:32:20;;;;;;;14.07;4.05;;;13.50;99.90;;;;;;5031410;28;20029;-70
2023/01/01 03:34:53;;;;;;;;;;;13.30;99.90;;;;;;5031928;28;20455;-70
2023/01/01 03:37:25;;;;;;;15.95;3.15;;;13.10;99.90;;;;;;5030635;28;20359;-70
2023/01/01 03:39:54;;;;;;;20.75;3.70;;;13.00;99.90;;;;;;5031187;28;20037;-70
2023/01/01 03:42:28;;;;;;;21.10;3.65;;;12.80;99.90;;;;;;5031393;28;20102;-70
2023/01/01 03:45:00;;;;;;;20.40;3.35;;;12.80;99.90;;;;;;5031386;28;20542;-69
2023/01/01 03:47:28;;;;;;;20.13;3.67;;;12.70;99.90;;;;;;5031315;28;20362;-69
2023/01/01 03:49:55;;;;;;;23.42;4.82;;;12.70;99.90;;;;;;5031045;28;20057;-70
2023/01/01 03:52:45;;;;;;;20.20;3.22;;;12.60;99.90;;;;;;5028993;28;20537;-70
2023/01/01 03:55:29;;;;;;;16.00;4.25;;;12.60;99.90;;;;;;5029377;28;20029;-68
2023/01/01 03:58:15;;;;;;;13.68;4.10;;;12.60;99.90;;;;;;5030661;28;20022;-69
2023/01/01 04:00:50;;;;;;;19.23;3.22;;;12.60;99.90;;;;;;5031016;28;20025;-70
2023/01/01 04:03:22;;;;;;;18.77;3.28;;;12.60;99.90;;;;;;5031149;28;20021;-70
2023/01/01 04:05:47;;;;;;;;;;;12.60;99.90;;;;;;5031568;28;20041;-70
2023/01/01 04:08:14;;;;;;;16.25;3.25;;;12.60;99.90;;;;;;5030808;28;21285;-70
2023/01/01 04:10:47;;;;;;;18.98;3.53;;;12.60;99.90;;;;;;5030871;28;20057;-69
2023/01/01 04:13:12;;;;;;;15.65;3.30;;;12.60;99.90;;;;;;5031087;28;20379;-69
2023/01/01 04:15:38;;;;;;;14.82;3.13;;;12.50;99.90;;;;;;5030993;28;20018;-69
2023/01/01 04:18:04;;;;;;;18.30;3.20;;;12.50;99.90;;;;;;5031219;28;20032;-70
2023/01/01 04:20:30;;;;;;;15.30;3.00;;;12.50;99.90;;;;;;5031085;28;20051;-69
2023/01/01 04:22:56;;;;;;;12.05;2.95;;;12.50;99.90;;;;;;5030694;28;20105;-70
2023/01/01 04:25:22;;;;;;;15.75;3.72;;;12.50;99.90;;;;;;5030159;28;20041;-68
2023/01/01 04:27:48;;;;;;;14.77;2.63;;;12.40;99.90;;;;;;5030244;28;20076;-70
2023/01/01 04:30:14;;;;;;;14.68;2.35;;;12.40;99.90;;;;;;5031138;28;20655;-69
2023/01/01 04:32:40;;;;;;;17.65;2.78;;;12.40;99.90;;;;;;5030993;28;20025;-70
2023/01/01 04:35:07;;;;;;;25.80;2.88;;;12.30;99.90;;;;;;5028896;28;20032;-69
2023/01/01 04:37:35;;;;;;;18.08;2.72;;;12.30;99.90;;;;;;5031859;28;20399;-69
2023/01/01 04:40:01;;;;;;;23.55;3.03;;;12.20;99.90;;;;;;5038793;28;20036;-70
2023/01/01 04:42:27;;;;;;;17.08;3.40;;;12.20;99.90;;;;;;5031639;28;20084;-69
2023/01/01 04:44:52;;;;;;;21.60;2.80;;;12.20;99.90;;;;;;5031584;28;20037;-70
2023/01/01 04:47:18;;;;;;;22.63;3.55;;;12.10;99.90;;;;;;5032085;28;20060;-70
2023/01/01 04:49:43;;;;;;;25.55;3.10;;;12.00;99.90;;;;;;5031336;28;20050;-70
2023/01/01 04:52:09;;;;;;;29.35;4.40;;;12.00;99.90;;;;;;5037509;28;20039;-69
2023/01/01 04:54:34;;;;;;;21.30;3.13;;;12.00;99.90;;;;;;5031567;28;20100;-70
2023/01/01 04:57:00;;;;;;;17.55;3.45;;;11.90;99.90;;;;;;5030359;28;20034;-70
2023/01/01 04:59:27;;;;;;;24.20;3.13;;;12.00;99.90;;;;;;5031509;28;20029;-70
2023/01/01 05:01:53;;;;;;;17.83;2.95;;;11.90;99.90;;;;;;5031801;28;20025;-69
2023/01/01 05:04:18;;;;;;;18.45;3.38;;;11.90;99.90;;;;;;5032237;28;20033;-70
2023/01/01 05:06:44;;;;;;;23.02;3.65;;;11.90;99.90;;;;;;5034744;28;20386;-70
2023/01/01 05:09:10;;;;;;;22.05;3.58;;;11.90;99.90;;;;;;5035172;28;20375;-69
2023/01/01 05:11:36;;;;;;;26.95;4.63;;;11.90;99.90;;;;;;5035269;28;20029;-70
2023/01/01 05:14:02;;;;;;;22.52;3.80;;;11.90;99.90;;;;;;5022696;28;20032;-70
2023/01/01 05:16:30;;;;;;;22.15;3.45;;;11.90;99.90;;;;;;5032109;28;20056;-70
2023/01/01 05:18:56;;;;;;;20.70;3.88;;;11.90;99.90;;;;;;5037139;28;20074;-69
2023/01/01 05:21:24;;;;;;;24.65;3.83;;;11.90;99.90;;;;;;5034910;28;20083;-70
2023/01/01 05:23:58;;;;;;;21.30;3.88;;;11.80;99.90;;;;;;5046210;28;20039;-71
2023/01/01 05:26:30;;;;;;;28.65;4.10;;;11.90;99.90;;;;;;5019334;28;20380;-69
2023/01/01 05:28:57;;;;;;;24.10;3.78;;;11.90;99.90;;;;;;5035107;28;20075;-69
2023/01/01 05:31:25;;;;;;;22.25;3.83;;;11.90;99.90;;;;;;5035156;28;20029;-70
2023/01/01 05:33:53;;;;;;;28.77;4.13;;;11.90;99.90;;;;;;5034215;28;20446;-70
2023/01/01 05:36:22;;;;;;;18.98;3.50;;;11.90;99.90;;;;;;5034850;28;20022;-70
2023/01/01 05:38:48;;;;;;;22.50;3.97;;;11.90;99.90;;;;;;5034742;28;20029;-70
2023/01/01 05:41:15;;;;;;;25.40;3.70;;;12.00;99.90;;;;;;5034739;28;20044;-70
2023/01/01 05:43:41;;;;;;;20.60;3.53;;;12.00;99.90;;;;;;5033888;28;20029;-69
2023/01/01 05:46:12;;;;;;;26.50;3.63;;;12.10;99.90;;;;;;5025379;28;20407;-69
2023/01/01 05:48:37;;;;;;;19.63;3.92;;;12.10;99.90;;;;;;5034647;28;20026;-69
2023/01/01 05:51:09;;;;;;;25.73;4.60;;;12.10;99.90;;;;;;5034654;28;20034;-69
2023/01/01 05:53:35;;;;;;;22.95;3.72;;;12.10;99.90;;;;;;5034816;28;20506;-70
2023/01/01 05:56:01;;;;;;;22.33;3.53;;;12.00;99.90;;;;;;5033886;28;20064;-70
2023/01/01 05:58:28;;;;;;;30.70;6.05;;;12.10;99.90;;;;;;5034690;28;20452;-70
2023/01/01 06:00:54;;;;;;;30.58;4.72;;;12.10;99.90;;;;;;5034108;28;20108;-71
2023/01/01 06:03:20;;;;;;;23.65;3.92;;;12.00;99.90;;;;;;5034335;28;20105;-69
2023/01/01 06:05:46;;;;;;;17.55;3.42;;;12.00;99.90;;;;;;5033019;28;20041;-69
2023/01/01 06:08:12;;;;;;;16.10;2.80;;;12.10;99.90;;;;;;5034371;28;20026;-70
2023/01/01 06:10:38;;;;;;;24.27;4.22;;;12.10;99.90;;;;;;5033911;28;20480;-69
2023/01/01 06:13:03;;;;;;;26.55;4.10;;;12.00;99.90;;;;;;5034222;28;20113;-70
2023/01/01 06:15:29;;;;;;;20.80;4.25;;;12.00;99.90;;;;;;5033970;28;20030;-70
2023/01/01 06:17:54;;;;;;;26.40;3.65;;;12.00;99.90;;;;;;5033706;28;20025;-70
2023/01/01 06:20:20;;;;;;;21.98;3.45;;;11.90;99.90;;;;;;5034385;28;20056;-70
2023/01/01 06:22:46;;;;;;;23.30;2.95;;;11.90;99.90;;;;;;5034103;28;20115;-70
2023/01/01 06:25:12;;;;;;;30.35;4.07;;;11.90;99.90;;;;;;5034108;28;20075;-70
2023/01/01 06:27:37;;;;;;;22.83;3.47;;;11.90;99.90;;;;;;5021730;28;20038;-70
2023/01/01 06:30:05;;;;;;;23.58;3.90;;;11.90;99.90;;;;;;5014474;28;20038;-70
2023/01/01 06:32:31;;;;;;;27.80;4.47;;;11.90;99.90;;;;;;5014416;28;20490;-70
2023/01/01 06:34:57;;;;;;;18.50;4.45;;;11.80;99.90;;;;;;5014155;28;20026;-69
2023/01/01 06:37:23;;;;;;;23.55;3.42;;;11.90;99.90;;;;;;5014141;28;20021;-70
2023/01/01 06:39:48;;;;;;;20.77;3.30;;;11.90;99.90;;;;;;5014152;28;20117;-70
2023/01/01 06:42:14;;;;;;;21.33;3.92;;;11.90;99.90;;;;;;5014107;28;20108;-69
2023/01/01 06:44:40;;;;;;;22.90;3.70;;;11.80;99.90;;;;;;5029715;28;20029;-68
2023/01/01 06:47:06;;;;;;;26.23;4.53;;;11.80;99.90;;;;;;5032497;28;20030;-70
2023/01/01 06:49:31;;;;;;;25.70;4.93;;;11.80;99.90;;;;;;5033375;28;20042;-69
2023/01/01 06:51:57;;;;;;;21.65;3.40;;;11.80;99.90;;;;;;5033789;28;20079;-69
2023/01/01 06:54:22;;;;;;;28.30;4.13;;;11.80;99.90;;;;;;5033760;28;20037;-69
2023/01/01 06:56:48;;;;;;;24.08;3.95;;;11.80;99.90;;;;;;5033631;28;20096;-70
2023/01/01 06:59:15;;;;;;;30.05;3.72;;;11.70;99.90;;;;;;5033421;28;20025;-69
2023/01/01 07:01:41;;;;;;;21.65;3.60;;;11.70;99.90;;;;;;5033478;28;20471;-70
2023/01/01 07:04:10;;;;;;;24.80;3.65;;;11.70;99.90;;;;;;5033053;28;20111;-70
2023/01/01 07:06:36;;;;;;;23.60;4.18;;;11.70;99.90;;;;;;5033557;28;20036;-70
2023/01/01 07:09:02;;;;;;;23.70;3.50;;;11.70;99.90;;;;;;5033381;28;20029;-69
2023/01/01 07:11:28;;;;;;;25.38;4.18;;;11.70;99.90;;;;;;5033492;28;20455;-69
2023/01/01 07:13:54;;;;;;;27.77;3.85;;;11.70;99.90;;;;;;5032871;28;20057;-69
2023/01/01 07:16:20;;;;;;;24.60;5.20;;;11.70;99.90;;;;;;5028466;28;20553;-69
2023/01/01 07:18:47;;;;;;;23.73;3.80;;;11.60;99.90;;;;;;5013439;28;20026;-69
2023/01/01 07:21:36;;;;;;;27.50;4.53;;;11.70;99.90;;;;;;5013390;28;20021;-69
2023/01/01 07:24:04;;;;;;;23.58;4.10;;;11.60;99.90;;;;;;5013207;28;20476;-70
2023/01/01 07:26:30;;;;;;;29.95;3.67;;;11.60;99.90;;;;;;5013152;28;20122;-69
2023/01/01 07:28:57;;;;;;;26.70;3.95;;;11.60;99.90;;;;;;5012530;28;20464;-70
2023/01/01 07:31:22;;;;;;;26.65;5.07;;;11.50;99.90;;;;;;5012979;28;20113;-69
2023/01/01 07:33:48;;;;;;;26.40;3.40;;;11.60;99.90;;;;;;5013242;28;20075;-69
2023/01/01 07:36:13;;;;;;;22.98;3.42;;;11.50;99.90;;;;;;5013277;28;20104;-69
2023/01/01 07:38:39;;;;;;;19.52;3.17;;;11.60;99.90;;;;;;5013197;28;20038;-69
2023/01/01 07:41:05;;;;;;;20.92;3.67;;;11.50;99.90;;;;;;5012588;28;20525;-69
2023/01/01 07:43:31;;;;;;;24.42;5.65;;;11.50;99.90;;;;;;5012990;28;20058;-69
2023/01/01 07:45:57;;;;;;;25.33;3.20;;;11.50;99.90;;;;;;5012837;28;20037;-70
2023/01/01 07:48:23;;;;;;;18.13;3.72;;;11.50;99.90;;;;;;5013170;28;20040;-69
2023/01/01 07:50:50;;;;;;;31.15;4.07;;;11.50;99.90;;;;;;5012901;28;20390;-70
2023/01/01 07:53:15;;;;;;;23.48;3.50;;;11.50;99.90;;;;;;5012577;28;20072;-69
2023/01/01 07:55:41;;;;;;;26.58;3.78;;;11.50;99.90;;;;;;5012776;28;20029;-69
2023/01/01 07:58:07;;;;;;;24.13;3.50;;;11.50;99.90;;;;;;5012423;28;20105;-70
2023/01/01 08:00:32;;;;;;;14.13;2.53;;;11.50;99.90;;;;;;5044380;28;20021;-70
2023/01/01 08:02:58;;;;;;;20.08;3.67;;;11.40;99.90;;;;;;5012552;28;20044;-70
2023/01/01 08:05:24;;;;;;;24.38;3.55;;;11.40;99.90;;;;;;5012655;28;20042;-70
2023/01/01 08:07:50;;;;;;;26.02;4.43;;;11.40;99.90;;;;;;5012862;28;20041;-69
2023/01/01 08:10:17;;;;;;;21.38;3.42;;;11.40;99.90;;;;;;5012503;28;20076;-70
2023/01/01 08:12:43;;;;;;;22.92;3.22;;;11.30;99.90;;;;;;5012528;28;20022;-70
2023/01/01 08:15:09;;;;;;;22.38;4.03;;;11.30;99.90;;;;;;5012740;28;20026;-69
2023/01/01 08:17:35;;;;;;;20.98;3.35;;;11.30;99.90;;;;;;5012380;28;20114;-69
2023/01/01 08:20:02;;;;;;;23.42;3.72;;;11.30;99.90;;;;;;5012441;28;20037;-69
2023/01/01 08:22:27;;;;;;;19.20;3.50;;;11.30;99.90;;;;;;5012504;28;20414;-69
2023/01/01 08:24:53;;;;;;;19.58;3.05;;;11.30;99.90;;;;;;5012278;28;20042;-69
2023/01/01 08:27:18;;;;;;;22.85;3.78;;;11.30;99.90;;;;;;5015284;28;20034;-70
2023/01/01 08:29:44;;;;;;;22.25;3.33;;;11.30;99.90;;;;;;5012415;28;20040;-69
2023/01/01 08:32:11;;;;;;;27.10;3.70;;;11.30;99.90;;;;;;5012626;28;20348;-69
2023/01/01 08:34:37;;;;;;;18.15;4.38;;;11.30;99.90;;;;;;5013051;28;20464;-69
2023/01/01 08:37:03;;;;;;;21.52;2.88;;;11.40;99.90;;;;;;5011049;28;20024;-71
2023/01/01 08:39:29;;;;;;;19.60;4.03;;;11.40;99.90;;;;;;5013112;28;20040;-70
2023/01/01 08:41:54;;;;;;;19.23;2.90;;;11.50;99.90;;;;;;5016130;28;20029;-69
2023/01/01 08:44:20;;;;;;;15.93;2.65;;;11.50;99.90;;;;;;5016104;28;20052;-69
2023/01/01 08:46:46;;;;;;;26.42;2.95;;;11.50;99.90;;;;;;5015903;28;20435;-69
2023/01/01 08:49:11;;;;;;;17.20;2.72;;;11.50;99.90;;;;;;5015777;28;20050;-70
2023/01/01 08:51:37;;;;;;;20.50;3.15;;;11.50;99.90;;;;;;5015618;28;20030;-69
2023/01/01 08:54:03;;;;;;;19.83;3.15;;;11.60;99.90;;;;;;5015735;28;20059;-70
2023/01/01 08:56:28;;;;;;;24.15;4.30;;;11.60;99.90;;;;;;5016353;28;20026;-69
2023/01/01 08:58:54;;;;;;;22.25;3.25;;;11.60;99.90;;;;;;5015716;28;20061;-70
2023/01/01 09:01:20;;;;;;;15.98;3.10;;;11.70;99.90;;;;;;5015976;28;20058;-70
2023/01/01 09:03:49;;;;;;;23.08;2.88;;;11.70;99.90;;;;;;5015881;28;20026;-70
2023/01/01 09:06:14;;;;;;;16.20;2.53;;;11.70;99.90;;;;;;5015582;28;20034;-70
2023/01/01 09:08:40;;;;;;;22.98;4.07;;;11.80;99.90;;;;;;5014512;28;20037;-70
2023/01/01 09:11:06;;;;;;;22.30;3.47;;;11.80;99.90;;;;;;5015588;28;20436;-69
2023/01/01 09:13:33;;;;;;;20.85;3.30;;;11.90;99.90;;;;;;5015494;28;20379;-69
2023/01/01 09:15:58;;;;;;;16.45;2.72;;;11.90;99.90;;;;;;5015230;28;20361;-70
2023/01/01 09:18:24;;;;;;;19.95;3.17;;;11.90;99.90;;;;;;5015217;28;20033;-70
2023/01/01 09:20:50;;;;;;;16.92;3.15;;;12.00;99.90;;;;;;5015057;28;20451;-70
2023/01/01 09:23:16;;;;;;;16.33;2.50;;;12.00;99.90;;;;;;5015024;28;20038;-70
2023/01/01 09:25:41;;;;;;;11.60;2.60;;;12.10;99.90;;;;;;5015152;28;20041;-70
2023/01/01 09:28:11;;;;;;;19.80;3.05;;;12.10;99.90;;;;;;5015369;28;20029;-69
2023/01/01 09:30:36;;;;;;;17.50;2.83;;;12.10;99.90;;;;;;5015585;28;20053;-70
2023/01/01 09:33:02;;;;;;;21.75;4.07;;;12.10;99.90;;;;;;5015527;28;20057;-70
2023/01/01 09:35:29;;;;;;;14.02;2.40;;;12.20;99.90;;;;;;5046969;28;20029;-70
2023/01/01 09:37:55;;;;;;;20.95;3.50;;;12.20;99.90;;;;;;5015073;28;20416;-70
2023/01/01 09:40:25;;;;;;;19.90;2.58;;;12.20;99.90;;;;;;5015080;28;20129;-69
2023/01/01 09:43:03;;;;;;;15.13;2.88;;;12.30;99.90;;;;;;5014776;28;20030;-70
2023/01/01 09:45:34;;;;;;;18.08;2.30;;;12.20;99.90;;;;;;5014846;28;20033;-69
2023/01/01 09:48:08;;;;;;;24.52;3.78;;;12.30;99.90;;;;;;5015102;28;20018;-70
2023/01/01 09:50:45;;;;;;;21.15;3.53;;;12.20;99.90;;;;;;5013718;28;20061;-70
2023/01/01 09:53:19;;;;;;;14.95;2.53;;;12.30;99.90;;;;;;5030060;28;20529;-70
2023/01/01 09:55:48;;;;;;;21.13;2.88;;;12.30;99.90;;;;;;5034842;28;20025;-70
2023/01/01 09:58:14;;;;;;;20.35;2.72;;;12.40;99.90;;;;;;5034787;28;20032;-69
2023/01/01 10:00:43;;;;;;;21.67;3.90;;;12.50;99.90;;;;;;5034651;28;20032;-69
2023/01/01 10:03:19;;;;;;;19.75;3.10;;;12.60;99.90;;;;;;5032936;28;20467;-70
2023/01/01 10:06:12;;;;;;;17.05;3.15;;;12.60;99.90;;;;;;5034216;28;20040;-70
2023/01/01 10:08:53;;;;;;;17.98;2.95;;;12.80;99.90;;;;;;5034430;28;20083;-69
2023/01/01 10:11:30;;;;;;;16.15;2.70;;;13.00;99.90;;;;;;5033988;28;20030;-71
2023/01/01 10:13:58;;;;;;;20.48;2.83;;;13.10;99.90;;;;;;5033334;28;20855;-71
2023/01/01 10:16:35;;;;;;;19.35;3.00;;;13.00;99.90;;;;;;5033885;28;20026;-70
2023/01/01 10:19:15;;;;;;;14.52;2.80;;;13.00;99.90;;;;;;5033951;28;20486;-72
2023/01/01 10:21:43;;;;;;;18.33;2.85;;;12.90;99.90;;;;;;5034126;28;20033;-70
2023/01/01 10:24:33;;;;;;;13.73;2.67;;;13.00;99.90;;;;;;5034101;28;20029;-71
2023/01/01 10:27:02;;;;;;;11.10;2.05;;;12.90;99.90;;;;;;5033647;28;20029;-71
2023/01/01 10:29:46;;;;;;;19.33;2.85;;;12.90;99.90;;;;;;5020466;28;20048;-70
2023/01/01 10:32:19;;;;;;;15.60;2.00;;;12.90;99.90;;;;;;5040971;28;20060;-71
2023/01/01 10:34:45;;;;;;;17.25;2.70;;;12.90;99.90;;;;;;5039982;28;20076;-71
2023/01/01 10:37:11;;;;;;;21.33;2.97;;;12.90;99.90;;;;;;5033338;28;20479;-71
2023/01/01 10:39:38;;;;;;;12.82;2.20;;;12.90;99.90;;;;;;5018777;28;20046;-71
2023/01/01 10:42:03;;;;;;;17.08;2.42;;;12.80;99.90;;;;;;5014129;28;20034;-69
2023/01/01 10:44:32;;;;;;;22.02;2.38;;;12.80;99.90;;;;;;5028760;28;20498;-71
2023/01/01 10:47:00;;;;;;;19.15;2.40;;;12.90;99.90;;;;;;5033495;28;20030;-70
2023/01/01 10:49:25;;;;;;;14.60;2.30;;;12.90;99.90;;;;;;5032957;28;20111;-70
2023/01/01 10:51:53;;;;;;;14.23;2.88;;;13.10;99.90;;;;;;5033582;28;20108;-71
2023/01/01 10:54:34;;;;;;;10.52;2.03;;;13.30;99.90;;;;;;5033674;28;20029;-71
2023/01/01 10:57:16;;;;;;;15.40;2.47;;;13.40;99.90;;;;;;5033443;28;20025;-71
2023/01/01 10:59:43;;;;;;;14.90;2.10;;;13.40;99.90;;;;;;5032789;28;20037;-72
2023/01/01 11:02:26;;;;;;;14.25;2.30;;;13.40;99.90;;;;;;5031865;28;20025;-69
2023/01/01 11:05:13;;;;;;;15.25;2.60;;;13.40;99.90;;;;;;5031164;28;20132;-72
2023/01/01 11:07:40;;;;;;;15.40;2.17;;;13.30;99.90;;;;;;5030283;28;20045;-70
2023/01/01 11:10:14;;;;;;;11.90;2.67;;;13.40;99.90;;;;;;5030800;28;20065;-70
2023/01/01 11:12:40;;;;;;;15.48;2.53;;;13.40;99.90;;;;;;5032677;28;20074;-70
2023/01/01 11:15:06;;;;;;;12.25;2.85;;;13.40;99.90;;;;;;5032288;28;20569;-71
2023/01/01 11:17:35;;;;;;;18.42;3.88;;;13.40;99.90;;;;;;5031932;28;20100;-69
2023/01/01 11:20:02;;;;;;;13.73;2.70;;;13.60;99.90;;;;;;5031661;28;20490;-71
2023/01/01 11:22:51;;;;;;;11.38;2.15;;;13.80;99.90;;;;;;5032754;28;20061;-71
2023/01/01 11:25:31;;;;;;;14.40;2.83;;;14.10;99.90;;;;;;5026865;28;20034;-69
2023/01/01 11:28:15;;;;;;;20.50;3.05;;;14.40;99.90;;;;;;5016390;28;20022;-68
2023/01/01 11:30:56;;;;;;;17.30;2.75;;;14.70;99.90;;;;;;5030940;28;20045;-71
2023/01/01 11:33:21;;;;;;;18.25;2.75;;;14.90;99.90;;;;;;5031626;28;20061;-71
2023/01/01 11:35:53;;;;;;;12.80;2.45;;;15.00;99.90;;;;;;5031717;28;20416;-69
2023/01/01 11:38:22;;;;;;;14.35;2.58;;;14.90;99.90;;;;;;5019144;28;20108;-70
2023/01/01 11:40:53;;;;;;;13.68;3.22;;;14.80;99.90;;;;;;5031265;28;20029;-67
2023/01/01 11:43:26;;;;;;;17.10;2.90;;;14.70;99.90;;;;;;5024320;28;20022;-70
2023/01/01 11:45:55;;;;;;;17.50;2.80;;;14.50;99.90;;;;;;5031902;28;20090;-72
2023/01/01 11:48:26;;;;;;;17.42;2.35;;;14.40;99.90;;;;;;5032841;28;20116;-71
2023/01/01 11:50:59;;;;;;;13.63;2.58;;;14.20;99.90;;;;;;5031988;28;20488;-70
2023/01/01 11:53:41;;;;;;;18.30;3.05;;;14.20;99.90;;;;;;5031143;28;20033;-71
2023/01/01 11:56:22;;;;;;;16.05;3.00;;;14.10;99.90;;;;;;5031975;28;20025;-72
2023/01/01 11:59:11;;;;;;;12.00;2.33;;;14.00;99.90;;;;;;5032768;28;20111;-72
2023/01/01 12:01:51;;;;;;;15.15;2.88;;;13.90;99.90;;;;;;5028702;28;20037;-68
2023/01/01 12:04:42;;;;;;;12.20;2.33;;;13.80;99.90;;;;;;5030901;28;20474;-70
2023/01/01 12:07:12;;;;;;;11.48;2.22;;;13.70;99.90;;;;;;5032166;28;20419;-71
2023/01/01 12:09:54;;;;;;;16.55;2.65;;;13.70;99.90;;;;;;5020916;28;20026;-69
2023/01/01 12:12:34;;;;;;;12.52;2.63;;;13.70;99.90;;;;;;5030867;28;20033;-69
2023/01/01 12:15:30;;;;;;;14.50;2.92;;;13.70;99.90;;;;;;5028988;28;20121;-71
2023/01/01 12:17:55;;;;;;;16.38;2.65;;;13.70;99.90;;;;;;5024404;28;20073;-70
2023/01/01 12:20:26;;;;;;;14.57;2.63;;;13.60;99.90;;;;;;5029490;28;20057;-72
2023/01/01 12:22:56;;;;;;;18.05;2.83;;;13.60;99.90;;;;;;5033025;28;20037;-69
2023/01/01 12:25:22;;;;;;;13.35;2.10;;;13.60;99.90;;;;;;5027729;28;20077;-72
2023/01/01 12:27:58;;;;;;;9.43;2.60;;;13.60;99.90;;;;;;5027896;28;20432;-71
2023/01/01 12:30:24;;;;;;;15.05;2.90;;;13.70;99.90;;;;;;5031934;28;20032;-69
2023/01/01 12:33:18;;;;;;;18.23;2.55;;;13.60;99.90;;;;;;5035132;28;20021;-70
2023/01/01 12:35:57;;;;;;;11.77;2.08;;;13.70;99.90;;;;;;5022900;28;20087;-70
2023/01/01 12:39:00;;;;;;;18.73;2.97;;;13.70;99.90;;;;;;5028128;28;20029;-70
2023/01/01 12:41:44;;;;;;;17.15;3.08;;;13.70;99.90;;;;;;5028430;28;20037;-70
2023/01/01 12:44:34;;;;;;;19.02;3.05;;;13.70;99.90;;;;;;5027644;28;20045;-71
2023/01/01 12:47:33;;;;;;;16.45;3.03;;;13.70;99.90;;;;;;5035468;28;20409;-70
2023/01/01 12:50:24;;;;;;;16.75;3.20;;;13.80;99.90;;;;;;5027596;28;20053;-70
2023/01/01 12:53:05;;;;;;;15.00;2.63;;;13.70;99.90;;;;;;5025202;28;20044;-71
2023/01/01 12:55:57;;;;;;;15.00;2.67;;;13.70;99.90;;;;;;5029604;28;20033;-71
2023/01/01 12:58:50;;;;;;;13.25;2.60;;;13.60;99.90;;;;;;5030943;28;20042;-71
2023/01/01 13:01:26;;;;;;;20.23;2.55;;;13.60;99.90;;;;;;5027185;28;20475;-70